Time;durP1;ratioP1;P1;durP2;ratioP2;P2;SDS_P1;SDS_P2;PMS_P1;PMS_P2;Temp;Humidity;BMP_temperature;BMP_pressure;BME280_temperature;BME280_humidity;BME280_pressure;Samples;Min_cycle;Max_cycle;Signal;HPM_P1;HPM_P2
2021/05/02 00:00:32;;;;;;;22.13;19.75;;;;;;;13.81;60.08;100169.66;5070050;28;20082;-68
2021/05/02 00:02:58;;;;;;;26.73;21.48;;;;;;;13.53;61.06;100169.63;5059133;28;20024;-68
2021/05/02 00:05:25;;;;;;;22.45;19.45;;;;;;;13.60;60.99;100161.47;5043087;28;20387;-68
2021/05/02 00:07:51;;;;;;;28.52;21.00;;;;;;;13.65;61.44;100165.75;5065341;28;20042;-68
2021/05/02 00:10:18;;;;;;;23.42;19.77;;;;;;;13.81;60.19;100169.66;5070781;28;20111;-68
2021/05/02 00:12:44;;;;;;;23.60;19.65;;;;;;;13.67;60.88;100163.94;5053021;28;20025;-68
2021/05/02 00:15:12;;;;;;;22.52;19.70;;;;;;;13.53;61.29;100162.56;5034833;28;20033;-68
2021/05/02 00:17:40;;;;;;;22.10;19.42;;;;;;;13.56;60.42;100172.19;5051062;28;20063;-68
2021/05/02 00:20:07;;;;;;;24.38;20.95;;;;;;;13.60;60.96;100173.84;5051043;28;20037;-68
2021/05/02 00:22:34;;;;;;;23.20;20.52;;;;;;;13.24;62.25;100180.13;5067733;28;20059;-68
2021/05/02 00:24:59;;;;;;;24.25;21.08;;;;;;;13.07;62.42;100172.66;5072951;28;20037;-68
2021/05/02 00:27:27;;;;;;;24.15;20.42;;;;;;;13.72;61.31;100164.66;5056334;28;20040;-68
2021/05/02 00:29:52;;;;;;;25.98;21.55;;;;;;;13.09;62.21;100173.47;5038902;28;20513;-68
2021/05/02 00:32:17;;;;;;;24.52;20.95;;;;;;;13.06;63.74;100173.56;5066101;28;20032;-68
2021/05/02 00:34:43;;;;;;;27.50;20.90;;;;;;;13.28;63.56;100157.09;5055292;28;20031;-68
2021/05/02 00:37:09;;;;;;;23.10;20.60;;;;;;;13.65;61.85;100164.00;5054360;28;20032;-68
2021/05/02 00:39:34;;;;;;;23.58;21.08;;;;;;;13.64;61.88;100171.97;5056603;28;20048;-68
2021/05/02 00:42:03;;;;;;;27.48;21.85;;;;;;;13.24;62.62;100163.38;5059990;28;20029;-68
2021/05/02 00:44:33;;;;;;;23.92;20.30;;;;;;;13.59;62.14;100165.03;5074261;28;20056;-68
2021/05/02 00:47:08;;;;;;;23.35;20.00;;;;;;;13.52;62.31;100170.56;5073676;28;20479;-68
2021/05/02 00:49:39;;;;;;;25.15;21.00;;;;;;;13.47;62.88;100170.66;5054945;28;20035;-68
2021/05/02 00:52:16;;;;;;;25.58;22.17;;;;;;;13.18;63.81;100167.06;5064247;28;20025;-68
2021/05/02 00:54:47;;;;;;;25.50;21.83;;;;;;;13.29;62.58;100166.75;5036198;28;20033;-68
2021/05/02 00:57:22;;;;;;;;;;;;;;;13.15;62.47;100168.03;5070600;28;20029;-68
2021/05/02 01:00:01;;;;;;;24.98;21.23;;;;;;;13.31;63.82;100175.53;5056386;28;19913;-68
2021/05/02 01:02:28;;;;;;;27.08;22.35;;;;;;;13.49;62.85;100179.47;5059327;28;20048;-68
2021/05/02 01:04:55;;;;;;;25.67;21.85;;;;;;;12.79;64.40;100176.03;5075206;28;20021;-69
2021/05/02 01:07:21;;;;;;;25.90;23.10;;;;;;;13.30;63.76;100179.06;5070578;28;20036;-68
2021/05/02 01:09:47;;;;;;;25.17;21.83;;;;;;;12.94;63.98;100175.63;5055447;28;20453;-68
2021/05/02 01:12:19;;;;;;;25.88;22.13;;;;;;;12.92;64.53;100179.25;5024453;28;20040;-68
2021/05/02 01:14:47;;;;;;;24.45;21.63;;;;;;;13.47;62.40;100187.41;5073414;28;20035;-68
2021/05/02 01:17:14;;;;;;;25.70;21.60;;;;;;;13.53;61.83;100172.28;5051303;28;20025;-68
2021/05/02 01:19:41;;;;;;;26.42;22.77;;;;;;;13.45;62.12;100172.50;5050978;28;20028;-68
2021/05/02 01:22:18;;;;;;;25.02;21.25;;;;;;;13.30;63.62;100171.13;5054944;28;20025;-68
2021/05/02 01:24:51;;;;;;;24.90;21.55;;;;;;;13.03;64.19;100165.69;5037067;28;20029;-68
2021/05/02 01:27:29;;;;;;;26.33;21.75;;;;;;;12.77;64.05;100162.00;5070698;28;20037;-68
2021/05/02 01:29:55;;;;;;;27.15;21.95;;;;;;;12.75;64.67;100166.44;5057836;28;20421;-68
2021/05/02 01:32:22;;;;;;;24.02;21.23;;;;;;;13.16;65.28;100172.41;5060928;28;20071;-68
2021/05/02 01:34:48;;;;;;;27.15;22.75;;;;;;;13.46;62.47;100164.50;5070641;28;20032;-68
2021/05/02 01:37:14;;;;;;;23.67;20.35;;;;;;;12.95;65.03;100166.78;5072893;28;20472;-68
2021/05/02 01:39:39;;;;;;;24.95;21.27;;;;;;;12.85;65.07;100172.38;5072825;28;20119;-68
2021/05/02 01:42:05;;;;;;;26.52;22.48;;;;;;;12.73;65.19;100163.84;5072853;28;20032;-68
2021/05/02 01:44:30;;;;;;;26.48;22.42;;;;;;;12.76;64.69;100162.88;5059879;28;20104;-68
2021/05/02 01:46:58;;;;;;;25.23;20.98;;;;;;;12.83;65.00;100161.81;5057385;28;20404;-68
2021/05/02 01:49:25;;;;;;;24.08;21.52;;;;;;;13.03;65.70;100163.94;5058378;28;20025;-68
2021/05/02 01:51:51;;;;;;;27.17;22.23;;;;;;;13.20;64.07;100158.16;5064602;28;20020;-68
2021/05/02 01:54:16;;;;;;;25.45;22.65;;;;;;;12.95;64.03;100158.00;5048292;28;20059;-68
2021/05/02 01:56:42;;;;;;;28.65;23.13;;;;;;;13.61;62.58;100157.03;5052486;28;20027;-68
2021/05/02 01:59:08;;;;;;;24.98;20.83;;;;;;;13.66;62.68;100159.53;5056110;28;20017;-68
2021/05/02 02:01:34;;;;;;;28.42;21.98;;;;;;;13.64;62.35;100159.59;5038492;28;20134;-68
2021/05/02 02:04:02;;;;;;;26.88;22.30;;;;;;;12.99;63.72;100169.34;5054727;28;20123;-68
2021/05/02 02:06:29;;;;;;;29.25;21.75;;;;;;;12.73;65.13;100176.22;5054339;28;20020;-68
2021/05/02 02:08:57;;;;;;;26.67;22.50;;;;;;;12.99;63.68;100162.28;5053653;28;20027;-68
2021/05/02 02:11:23;;;;;;;30.38;23.55;;;;;;;13.03;63.49;100161.28;5054452;28;20099;-68
2021/05/02 02:13:48;;;;;;;28.90;23.27;;;;;;;13.05;64.71;100169.19;5064654;28;20029;-68
2021/05/02 02:16:15;;;;;;;29.35;24.38;;;;;;;12.87;64.33;100168.75;5052175;28;20025;-68
2021/05/02 02:18:41;;;;;;;27.15;22.45;;;;;;;12.95;64.04;100174.72;5070921;28;20039;-68
2021/05/02 02:21:08;;;;;;;26.30;21.77;;;;;;;13.01;64.01;100162.25;5070255;28;20103;-68
2021/05/02 02:23:35;;;;;;;27.25;23.55;;;;;;;13.07;64.49;100168.22;5053731;28;20039;-68
2021/05/02 02:26:11;;;;;;;25.38;22.52;;;;;;;13.23;63.42;100166.94;5059975;28;20025;-68
2021/05/02 02:28:36;;;;;;;26.70;22.10;;;;;;;13.10;64.06;100169.91;5071062;28;20035;-68
2021/05/02 02:31:02;;;;;;;27.48;22.58;;;;;;;13.03;63.96;100173.63;5066946;28;20017;-68
2021/05/02 02:33:31;;;;;;;25.02;22.38;;;;;;;13.30;63.39;100168.47;5051042;28;20039;-68
2021/05/02 02:35:56;;;;;;;27.42;24.42;;;;;;;13.35;63.14;100171.88;5063854;28;20024;-68
2021/05/02 02:38:24;;;;;;;28.85;23.90;;;;;;;13.02;63.45;100174.56;5053975;28;20029;-68
2021/05/02 02:40:53;;;;;;;30.52;24.15;;;;;;;12.29;67.43;100174.63;5053517;28;20114;-68
2021/05/02 02:43:38;;;;;;;27.05;22.80;;;;;;;12.12;67.25;100173.28;5062378;28;20047;-68
2021/05/02 02:46:05;;;;;;;28.88;24.70;;;;;;;12.56;65.68;100177.50;5032608;28;20395;-68
2021/05/02 02:48:32;;;;;;;30.75;24.70;;;;;;;12.48;66.16;100174.19;5051821;28;20396;-68
2021/05/02 02:51:00;;;;;;;29.85;25.15;;;;;;;12.92;66.21;100180.13;5052105;28;20021;-68
2021/05/02 02:53:30;;;;;;;29.70;23.50;;;;;;;12.30;66.74;100171.97;5072079;28;20016;-68
2021/05/02 02:56:06;;;;;;;30.60;25.15;;;;;;;12.41;66.65;100179.63;5058329;28;20035;-67
2021/05/02 02:58:43;;;;;;;29.75;24.88;;;;;;;12.10;66.67;100180.38;5062138;28;20016;-67
2021/05/02 03:01:10;;;;;;;30.60;24.88;;;;;;;12.12;68.51;100186.50;5052611;28;20062;-68
2021/05/02 03:03:41;;;;;;;30.42;24.45;;;;;;;12.47;66.10;100183.03;5052847;28;20495;-68
2021/05/02 03:06:06;;;;;;;30.48;25.50;;;;;;;12.26;67.64;100185.28;5045870;28;20118;-68
2021/05/02 03:08:31;;;;;;;28.30;24.48;;;;;;;12.22;67.43;100173.06;5034482;28;20029;-67
2021/05/02 03:10:57;;;;;;;29.35;23.75;;;;;;;12.30;67.56;100179.91;5082567;28;20105;-68
2021/05/02 03:13:23;;;;;;;31.35;24.52;;;;;;;12.51;66.59;100182.91;5065655;28;20084;-67
2021/05/02 03:15:49;;;;;;;28.80;23.70;;;;;;;12.29;66.83;100185.22;5052515;28;20028;-67
2021/05/02 03:18:26;;;;;;;28.55;23.52;;;;;;;12.31;66.67;100191.34;5070088;28;20032;-68
2021/05/02 03:21:12;;;;;;;27.83;23.27;;;;;;;11.96;68.14;100185.06;5070729;28;20089;-67
2021/05/02 03:23:42;;;;;;;28.85;23.02;;;;;;;12.35;67.23;100189.50;5054943;28;20100;-67
2021/05/02 03:26:08;;;;;;;25.95;22.60;;;;;;;12.61;65.80;100190.63;5071168;28;20025;-67
2021/05/02 03:28:46;;;;;;;27.50;22.27;;;;;;;12.41;66.00;100195.50;5070480;28;20450;-68
2021/05/02 03:31:12;;;;;;;24.52;21.23;;;;;;;11.98;69.84;100201.75;5049339;28;20028;-68
2021/05/02 03:33:46;;;;;;;30.77;23.25;;;;;;;12.36;67.20;100202.69;5033431;28;20028;-68
2021/05/02 03:36:14;;;;;;;27.48;23.08;;;;;;;12.33;67.10;100200.09;5067036;28;20560;-67
2021/05/02 03:38:50;;;;;;;30.02;23.98;;;;;;;12.50;66.70;100204.13;5062898;28;20028;-68
2021/05/02 03:41:17;;;;;;;27.23;22.55;;;;;;;11.77;69.46;100209.28;5057888;28;20086;-68
2021/05/02 03:43:43;;;;;;;30.00;23.08;;;;;;;12.16;67.79;100203.16;5067840;28;20107;-68
2021/05/02 03:46:23;;;;;;;28.50;22.95;;;;;;;12.73;65.85;100210.63;5051088;28;20440;-68
2021/05/02 03:48:58;;;;;;;31.20;23.73;;;;;;;12.13;68.01;100211.13;5066940;28;20086;-68
2021/05/02 03:51:26;;;;;;;29.08;23.77;;;;;;;12.19;67.91;100211.00;5069920;28;20029;-68
2021/05/02 03:53:52;;;;;;;27.63;22.20;;;;;;;12.30;67.74;100208.09;5047361;28;20032;-68
2021/05/02 03:56:41;;;;;;;27.05;21.33;;;;;;;12.11;67.81;100203.28;5069833;28;20043;-68
2021/05/02 03:59:13;;;;;;;26.73;22.10;;;;;;;12.26;68.04;100209.09;5067583;28;20074;-67
2021/05/02 04:01:43;;;;;;;25.55;22.55;;;;;;;12.39;67.25;100210.53;5049124;28;20035;-68
2021/05/02 04:04:13;;;;;;;25.02;20.58;;;;;;;12.48;66.22;100211.22;5057156;28;20017;-68
2021/05/02 04:06:39;;;;;;;24.65;20.35;;;;;;;11.70;69.02;100212.94;5066585;28;20387;-68
2021/05/02 04:09:09;;;;;;;25.42;20.25;;;;;;;11.77;69.06;100214.56;5067920;28;20021;-68
2021/05/02 04:11:35;;;;;;;24.00;20.40;;;;;;;11.75;70.98;100216.34;5055118;28;20021;-68
2021/05/02 04:14:02;;;;;;;22.27;19.88;;;;;;;12.00;69.49;100215.84;5062350;28;20098;-67
2021/05/02 04:16:27;;;;;;;24.50;20.42;;;;;;;11.86;69.02;100219.63;5041345;28;20492;-68
2021/05/02 04:18:52;;;;;;;25.70;21.02;;;;;;;11.93;68.44;100215.97;5054388;28;20054;-67
2021/05/02 04:21:18;;;;;;;23.27;20.60;;;;;;;11.66;69.69;100222.69;5069614;28;20082;-67
2021/05/02 04:23:43;;;;;;;23.92;20.20;;;;;;;11.38;70.67;100225.91;5054883;28;20083;-67
2021/05/02 04:26:08;;;;;;;24.75;20.80;;;;;;;11.59;71.50;100232.53;5074193;28;20028;-68
2021/05/02 04:28:33;;;;;;;25.25;21.17;;;;;;;11.65;69.01;100227.13;5045284;28;20021;-68
2021/05/02 04:30:59;;;;;;;24.45;20.90;;;;;;;11.77;69.70;100233.91;5057927;28;20435;-68
2021/05/02 04:33:24;;;;;;;28.33;21.60;;;;;;;11.70;68.97;100229.66;5071409;28;20031;-68
2021/05/02 04:35:49;;;;;;;26.52;22.10;;;;;;;11.59;71.61;100236.94;5059284;28;20032;-68
2021/05/02 04:38:15;;;;;;;27.33;22.58;;;;;;;12.41;68.90;100232.50;5073031;28;20070;-68
2021/05/02 04:40:40;;;;;;;27.63;22.63;;;;;;;12.43;67.99;100235.13;5071672;28;20340;-68
2021/05/02 04:43:05;;;;;;;30.25;24.13;;;;;;;12.15;68.90;100234.03;5054368;28;20024;-68
2021/05/02 04:45:30;;;;;;;29.50;23.17;;;;;;;13.06;66.83;100231.81;5069116;28;20085;-68
2021/05/02 04:47:56;;;;;;;30.27;22.83;;;;;;;12.50;67.68;100234.06;5077178;28;20387;-67
2021/05/02 04:50:21;;;;;;;27.45;23.40;;;;;;;12.95;66.14;100238.25;5064874;28;20030;-67
2021/05/02 04:52:46;;;;;;;28.63;22.52;;;;;;;12.99;66.41;100240.81;5059962;28;20449;-68
2021/05/02 04:55:12;;;;;;;31.23;24.23;;;;;;;12.60;66.59;100244.44;5056035;28;20020;-68
2021/05/02 04:57:37;;;;;;;28.17;23.40;;;;;;;12.33;69.23;100245.06;5056539;28;20028;-67
2021/05/02 05:00:03;;;;;;;27.45;22.95;;;;;;;13.21;65.81;100252.56;5059361;28;20039;-68
2021/05/02 05:02:29;;;;;;;26.58;21.80;;;;;;;12.29;68.38;100243.38;5066843;28;20115;-68
2021/05/02 05:04:54;;;;;;;27.00;22.52;;;;;;;12.40;68.45;100251.94;5059427;28;20021;-67
2021/05/02 05:07:19;;;;;;;30.90;24.60;;;;;;;12.64;68.10;100241.66;5067602;28;20062;-68
2021/05/02 05:09:45;;;;;;;26.95;23.35;;;;;;;11.96;67.45;100252.00;5080321;28;20024;-68
2021/05/02 05:12:10;;;;;;;29.17;24.05;;;;;;;12.28;70.13;100254.88;5086873;28;20071;-68
2021/05/02 05:14:35;;;;;;;29.58;24.00;;;;;;;12.05;70.86;100261.53;5055745;28;20763;-68
2021/05/02 05:17:00;;;;;;;31.55;25.38;;;;;;;12.89;67.59;100259.59;5072072;28;20017;-68
2021/05/02 05:19:26;;;;;;;34.40;27.15;;;;;;;12.37;69.23;100265.22;5055114;28;20036;-68
2021/05/02 05:21:51;;;;;;;30.85;26.20;;;;;;;12.26;67.77;100269.91;5058242;28;20083;-68
2021/05/02 05:24:16;;;;;;;29.42;25.40;;;;;;;12.39;69.16;100259.91;5071323;28;20033;-68
2021/05/02 05:26:42;;;;;;;32.80;25.70;;;;;;;12.24;67.84;100269.09;5070180;28;20033;-67
2021/05/02 05:29:07;;;;;;;30.63;24.85;;;;;;;12.24;70.21;100279.66;5072850;28;20031;-68
2021/05/02 05:31:32;;;;;;;30.33;25.67;;;;;;;12.29;70.22;100272.47;5071101;28;20476;-68
2021/05/02 05:33:58;;;;;;;31.50;25.38;;;;;;;12.22;68.85;100271.75;5072207;28;20031;-68
2021/05/02 05:36:23;;;;;;;32.20;26.33;;;;;;;12.37;69.35;100280.25;5071476;28;20048;-68
2021/05/02 05:38:48;;;;;;;28.27;24.90;;;;;;;12.47;68.15;100278.25;5085096;28;20012;-68
2021/05/02 05:41:14;;;;;;;28.58;23.77;;;;;;;12.82;67.09;100273.88;5070921;28;20039;-68
2021/05/02 05:43:39;;;;;;;26.15;23.13;;;;;;;12.79;66.23;100284.53;5063883;28;20052;-68
2021/05/02 05:46:04;;;;;;;25.23;21.80;;;;;;;12.05;70.04;100288.84;5072816;28;20028;-68
2021/05/02 05:48:31;;;;;;;28.55;22.52;;;;;;;11.78;70.61;100298.19;5064173;28;20017;-68
2021/05/02 05:50:57;;;;;;;28.23;23.33;;;;;;;11.61;69.44;100293.25;5065311;28;20078;-67
2021/05/02 05:53:22;;;;;;;26.95;22.92;;;;;;;11.63;70.98;100300.25;5072517;28;20318;-67
2021/05/02 05:55:47;;;;;;;29.10;23.10;;;;;;;11.11;71.82;100297.66;5071392;28;20055;-67
2021/05/02 05:58:12;;;;;;;27.73;23.92;;;;;;;11.56;71.61;100301.25;5067462;28;20116;-68
2021/05/02 06:00:38;;;;;;;27.30;23.38;;;;;;;12.20;69.71;100300.00;5058923;28;20031;-67
2021/05/02 06:03:04;;;;;;;29.10;23.50;;;;;;;12.11;68.85;100303.72;5054203;28;20425;-67
2021/05/02 06:05:30;;;;;;;28.75;22.90;;;;;;;12.15;69.95;100299.22;5036949;28;20381;-67
2021/05/02 06:07:55;;;;;;;28.83;24.63;;;;;;;12.36;69.57;100313.75;5084914;28;20039;-68
2021/05/02 06:10:20;;;;;;;29.80;24.17;;;;;;;12.34;70.03;100315.53;5071692;28;20032;-68
2021/05/02 06:12:46;;;;;;;27.73;22.45;;;;;;;12.52;68.60;100313.41;5071167;28;20676;-67
2021/05/02 06:15:12;;;;;;;27.23;22.50;;;;;;;12.23;68.58;100306.97;5061347;28;20483;-67
2021/05/02 06:17:38;;;;;;;31.38;22.33;;;;;;;12.39;68.59;100318.97;5045747;28;20041;-68
2021/05/02 06:20:04;;;;;;;25.55;20.10;;;;;;;12.26;69.74;100321.00;5043294;28;20032;-68
2021/05/02 06:22:29;;;;;;;27.77;22.10;;;;;;;11.15;71.10;100327.50;5063811;28;20024;-68
2021/05/02 06:24:54;;;;;;;26.85;22.63;;;;;;;11.52;71.83;100318.06;5041186;28;20116;-68
2021/05/02 06:27:20;;;;;;;29.20;23.27;;;;;;;11.66;71.85;100333.63;5065215;28;20031;-68
2021/05/02 06:29:45;;;;;;;34.47;25.83;;;;;;;11.72;70.40;100333.53;5070966;28;20103;-68
2021/05/02 06:32:11;;;;;;;28.60;24.33;;;;;;;11.91;70.39;100341.94;5036621;28;20020;-68
2021/05/02 06:34:36;;;;;;;32.50;26.77;;;;;;;11.51;70.23;100330.38;5071348;28;20081;-68
2021/05/02 06:37:01;;;;;;;29.73;25.58;;;;;;;11.84;70.85;100335.03;5057172;28;20024;-68
2021/05/02 06:39:27;;;;;;;33.10;26.60;;;;;;;11.87;69.01;100348.19;5068464;28;20078;-68
2021/05/02 06:41:53;;;;;;;33.22;27.17;;;;;;;11.46;70.77;100347.22;5062170;28;20029;-68
2021/05/02 06:44:18;;;;;;;34.35;27.42;;;;;;;11.76;70.66;100344.91;5055102;28;20051;-68
2021/05/02 06:46:44;;;;;;;34.70;28.05;;;;;;;12.19;67.68;100348.50;5052301;28;20107;-68
2021/05/02 06:49:10;;;;;;;33.03;26.90;;;;;;;11.47;70.20;100344.53;5064293;28;20018;-68
2021/05/02 06:51:37;;;;;;;34.05;27.08;;;;;;;11.83;69.93;100351.81;5072101;28;20491;-68
2021/05/02 06:54:03;;;;;;;33.33;27.20;;;;;;;11.66;69.48;100352.13;5050264;28;20450;-68
2021/05/02 06:56:28;;;;;;;37.63;28.27;;;;;;;12.12;67.30;100363.63;5045294;28;20111;-68
2021/05/02 06:58:55;;;;;;;37.75;27.70;;;;;;;11.45;68.28;100367.50;5044223;28;20024;-67
2021/05/02 07:01:21;;;;;;;34.03;26.77;;;;;;;11.81;67.21;100375.63;5056219;28;20055;-68
2021/05/02 07:03:47;;;;;;;34.88;27.75;;;;;;;11.64;67.56;100373.28;5053248;28;20024;-67
2021/05/02 07:06:12;;;;;;;34.72;27.98;;;;;;;11.35;68.92;100372.06;5052824;28;20020;-68
2021/05/02 07:08:40;;;;;;;34.42;27.98;;;;;;;11.47;69.10;100370.09;5062189;28;20074;-68
2021/05/02 07:11:07;;;;;;;39.92;28.98;;;;;;;11.47;69.72;100375.38;5057977;28;20028;-67
2021/05/02 07:13:32;;;;;;;38.38;29.23;;;;;;;11.60;67.85;100382.19;5058115;28;20075;-68
2021/05/02 07:16:00;;;;;;;41.38;30.98;;;;;;;11.45;70.84;100382.44;5062758;28;20404;-67
2021/05/02 07:18:31;;;;;;;44.28;31.75;;;;;;;11.05;71.82;100384.88;5071321;28;20028;-68
2021/05/02 07:20:56;;;;;;;41.47;31.42;;;;;;;11.71;69.22;100386.41;5091190;28;20372;-67
2021/05/02 07:23:22;;;;;;;41.53;30.67;;;;;;;11.71;67.63;100389.91;5069454;28;20035;-67
2021/05/02 07:25:47;;;;;;;44.83;30.85;;;;;;;11.35;70.75;100392.28;5056785;28;20106;-68
2021/05/02 07:28:12;;;;;;;41.38;31.08;;;;;;;11.33;70.01;100384.41;5035142;28;20537;-68
2021/05/02 07:30:38;;;;;;;46.35;34.58;;;;;;;11.86;68.65;100386.09;5048778;28;20456;-68
2021/05/02 07:33:03;;;;;;;41.85;32.38;;;;;;;11.87;65.85;100385.19;5063260;28;20551;-68
2021/05/02 07:35:30;;;;;;;41.13;31.88;;;;;;;11.53;69.74;100388.47;5068878;28;20057;-68
2021/05/02 07:37:55;;;;;;;42.90;32.08;;;;;;;11.71;67.56;100389.91;5075234;28;20027;-68
2021/05/02 07:40:21;;;;;;;42.17;32.53;;;;;;;12.42;66.77;100392.97;5064770;28;20394;-68
2021/05/02 07:42:46;;;;;;;39.40;30.65;;;;;;;12.16;66.59;100397.00;5049276;28;20032;-68
2021/05/02 07:45:11;;;;;;;40.58;31.27;;;;;;;12.02;68.04;100394.63;5044885;28;20032;-68
2021/05/02 07:47:39;;;;;;;42.28;30.33;;;;;;;11.63;68.17;100390.03;5046649;28;20044;-68
2021/05/02 07:50:04;;;;;;;43.60;32.10;;;;;;;12.19;67.31;100396.06;5057960;28;20043;-68
2021/05/02 07:52:30;;;;;;;44.65;32.25;;;;;;;12.68;64.84;100396.78;5057509;28;20507;-68
2021/05/02 07:54:55;;;;;;;40.92;29.65;;;;;;;12.47;65.07;100399.94;5068554;28;20028;-68
2021/05/02 07:57:20;;;;;;;41.42;28.98;;;;;;;12.73;66.38;100401.13;5057293;28;20043;-68
2021/05/02 07:59:46;;;;;;;41.58;30.02;;;;;;;12.24;65.80;100404.78;5074291;28;20025;-68
2021/05/02 08:02:11;;;;;;;40.83;30.20;;;;;;;12.28;65.40;100413.53;5057239;28;20021;-68
2021/05/02 08:04:39;;;;;;;38.45;30.52;;;;;;;12.77;67.11;100402.81;5050368;28;20036;-68
2021/05/02 08:07:08;;;;;;;44.97;33.20;;;;;;;12.55;66.49;100420.03;5057326;28;20029;-68
2021/05/02 08:09:33;;;;;;;47.05;32.63;;;;;;;12.16;65.36;100412.88;5054798;28;20032;-68
2021/05/02 08:11:59;;;;;;;38.88;30.00;;;;;;;12.34;65.68;100421.31;5067037;28;20411;-68
2021/05/02 08:14:24;;;;;;;43.45;32.17;;;;;;;12.03;65.90;100416.63;5036145;28;20025;-69
2021/05/02 08:16:49;;;;;;;45.58;35.13;;;;;;;12.60;65.33;100422.56;5067753;28;20452;-68
2021/05/02 08:19:15;;;;;;;45.95;35.47;;;;;;;12.98;65.42;100421.72;5069275;28;20114;-68
2021/05/02 08:21:40;;;;;;;41.85;33.45;;;;;;;12.45;65.99;100424.63;5051470;28;20052;-68
2021/05/02 08:24:06;;;;;;;41.78;32.53;;;;;;;13.27;65.82;100428.97;5044180;28;20093;-67
2021/05/02 08:26:31;;;;;;;37.15;29.85;;;;;;;13.91;62.96;100424.75;5059534;28;20028;-67
2021/05/02 08:28:57;;;;;;;40.72;32.00;;;;;;;13.10;63.65;100432.03;5065136;28;20033;-67
2021/05/02 08:31:22;;;;;;;37.00;29.42;;;;;;;13.84;61.91;100431.16;5070022;28;20020;-67
2021/05/02 08:33:48;;;;;;;36.33;29.08;;;;;;;14.15;62.05;100438.25;5053453;28;20017;-67
2021/05/02 08:36:13;;;;;;;35.13;27.63;;;;;;;14.17;60.34;100430.25;5050332;28;20205;-67
2021/05/02 08:38:38;;;;;;;34.08;28.38;;;;;;;13.72;60.59;100441.16;5053098;28;20121;-67
2021/05/02 08:41:04;;;;;;;34.85;27.08;;;;;;;13.55;64.57;100443.38;5053143;28;20028;-67
2021/05/02 08:43:30;;;;;;;34.45;28.25;;;;;;;13.14;64.12;100446.94;5044540;28;20115;-67
2021/05/02 08:45:56;;;;;;;35.33;25.77;;;;;;;13.27;63.11;100451.97;5060796;28;20100;-67
2021/05/02 08:48:21;;;;;;;34.58;28.27;;;;;;;12.99;61.70;100448.19;5070952;28;20020;-67
2021/05/02 08:50:49;;;;;;;38.60;31.08;;;;;;;12.82;64.27;100454.72;5053895;28;20029;-67
2021/05/02 08:53:15;;;;;;;33.67;28.45;;;;;;;12.52;65.45;100454.47;5033138;28;20056;-67
2021/05/02 08:55:42;;;;;;;31.98;26.08;;;;;;;11.78;65.26;100454.09;5047747;28;20099;-67
2021/05/02 08:58:07;;;;;;;32.80;26.13;;;;;;;11.70;65.57;100458.63;5052365;28;20132;-67
2021/05/02 09:00:33;;;;;;;31.83;25.40;;;;;;;12.02;65.96;100454.53;5036156;28;20484;-67
2021/05/02 09:02:58;;;;;;;32.83;25.10;;;;;;;12.59;63.00;100457.84;5070609;28;20036;-67
2021/05/02 09:05:24;;;;;;;30.48;25.23;;;;;;;13.03;63.21;100456.91;5050537;28;20178;-67
2021/05/02 09:07:49;;;;;;;32.08;26.33;;;;;;;12.51;64.79;100450.06;5070237;28;20108;-67
2021/05/02 09:10:17;;;;;;;29.23;23.50;;;;;;;13.47;59.38;100457.63;5052530;28;20024;-67
2021/05/02 09:13:02;;;;;;;28.15;23.88;;;;;;;13.25;58.97;100459.06;5050671;28;20021;-67
2021/05/02 09:15:28;;;;;;;29.95;23.20;;;;;;;13.34;59.97;100464.16;5042653;28;20039;-67
2021/05/02 09:18:02;;;;;;;27.77;23.35;;;;;;;13.03;61.67;100462.19;5066085;28;20028;-67
2021/05/02 09:20:42;;;;;;;25.90;21.42;;;;;;;13.34;59.39;100469.47;5052785;28;20498;-67
2021/05/02 09:23:08;;;;;;;24.73;22.08;;;;;;;12.72;61.60;100469.06;5068702;28;20021;-67
2021/05/02 09:25:50;;;;;;;25.33;22.63;;;;;;;11.87;62.75;100467.13;5060098;28;20082;-67
2021/05/02 09:28:17;;;;;;;22.90;20.15;;;;;;;12.57;61.95;100470.22;5052286;28;20017;-67
2021/05/02 09:30:43;;;;;;;23.50;20.88;;;;;;;13.15;59.36;100467.22;5051717;28;20418;-66
2021/05/02 09:33:08;;;;;;;22.60;20.17;;;;;;;12.58;61.10;100479.94;5070294;28;20039;-67
2021/05/02 09:35:35;;;;;;;25.15;22.02;;;;;;;13.60;58.28;100478.56;5043326;28;20063;-67
2021/05/02 09:38:17;;;;;;;23.77;21.20;;;;;;;13.38;58.60;100475.53;5048149;28;20036;-67
2021/05/02 09:40:50;;;;;;;25.13;21.13;;;;;;;12.85;59.06;100472.31;5052754;28;20021;-67
2021/05/02 09:43:33;;;;;;;25.25;21.55;;;;;;;12.39;61.37;100475.00;5048658;28;20106;-67
2021/05/02 09:48:54;;;;;;;25.05;22.33;;;;;;;12.01;64.20;100480.06;5050242;28;20028;-67
2021/05/02 09:51:23;;;;;;;25.50;21.60;;;;;;;12.36;61.84;100487.41;5066957;28;20496;-67
2021/05/02 09:54:21;;;;;;;26.48;22.95;;;;;;;12.23;62.18;100492.94;5058753;28;20122;-67
2021/05/02 09:56:55;;;;;;;27.27;23.20;;;;;;;12.34;62.50;100489.22;5032613;28;20047;-67
2021/05/02 09:59:29;;;;;;;23.90;21.40;;;;;;;12.83;58.88;100492.63;5032517;28;20053;-67
2021/05/02 10:02:10;;;;;;;25.90;21.90;;;;;;;11.92;61.59;100498.75;5076727;28;20032;-67
2021/05/02 10:04:41;;;;;;;26.67;22.15;;;;;;;12.64;60.59;100500.97;5068273;28;20028;-67
2021/05/02 10:07:10;;;;;;;27.23;22.30;;;;;;;13.24;60.24;100492.59;5058660;28;20372;-67
2021/05/02 10:09:37;;;;;;;27.20;22.27;;;;;;;13.42;59.51;100506.34;5051342;28;20028;-67
2021/05/02 10:12:04;;;;;;;24.55;21.85;;;;;;;12.76;59.80;100506.91;5021555;28;20067;-67
2021/05/02 10:14:30;;;;;;;26.55;22.90;;;;;;;12.99;59.44;100505.53;5050856;28;20032;-67
2021/05/02 10:16:55;;;;;;;25.33;21.77;;;;;;;12.94;59.40;100513.59;5056319;28;20121;-67
2021/05/02 10:19:21;;;;;;;27.17;23.33;;;;;;;13.72;57.79;100512.72;5069161;28;20056;-67
2021/05/02 10:21:47;;;;;;;27.50;23.27;;;;;;;13.18;59.46;100514.81;5056901;28;20028;-67
2021/05/02 10:24:12;;;;;;;25.85;22.67;;;;;;;12.98;60.29;100514.38;5051292;28;20063;-67
2021/05/02 10:26:38;;;;;;;33.55;25.40;;;;;;;13.17;60.96;100518.38;5050417;28;20442;-67
2021/05/02 10:29:03;;;;;;;34.35;27.02;;;;;;;13.53;57.73;100503.44;5050315;28;20055;-67
2021/05/02 10:31:29;;;;;;;28.88;24.10;;;;;;;13.19;60.92;100508.63;5065225;28;20075;-67
2021/05/02 10:33:54;;;;;;;27.00;22.88;;;;;;;13.42;58.06;100501.03;5054926;28;20031;-68
2021/05/02 10:36:24;;;;;;;23.95;20.58;;;;;;;13.64;58.22;100504.06;5050548;28;20036;-67
2021/05/02 10:39:00;;;;;;;25.60;21.02;;;;;;;13.60;58.20;100513.00;5039981;28;20031;-67
2021/05/02 10:41:36;;;;;;;24.30;21.65;;;;;;;14.05;57.46;100505.72;5042129;28;20081;-67
2021/05/02 10:44:05;;;;;;;27.75;22.83;;;;;;;14.24;56.45;100504.31;5053168;28;20558;-68
2021/05/02 10:46:57;;;;;;;24.08;21.48;;;;;;;14.53;55.31;100507.06;5068378;28;20070;-68
2021/05/02 10:49:22;;;;;;;22.55;20.27;;;;;;;14.70;55.95;100503.91;5034833;28;20059;-67
2021/05/02 10:51:52;;;;;;;25.10;21.95;;;;;;;15.39;52.94;100501.91;5053399;28;20052;-68
2021/05/02 10:54:23;;;;;;;24.33;20.98;;;;;;;15.24;53.25;100509.44;5047148;28;20028;-68
2021/05/02 10:56:55;;;;;;;24.70;21.63;;;;;;;14.35;54.87;100509.34;5053448;28;20062;-67
2021/05/02 10:59:26;;;;;;;21.70;19.40;;;;;;;15.32;52.12;100506.53;5068063;28;20025;-67
2021/05/02 11:01:52;;;;;;;;;;;;;;;14.90;53.04;100507.81;5051605;28;20028;-67
2021/05/02 11:04:17;;;;;;;22.23;19.83;;;;;;;15.21;53.57;100509.53;5031740;28;20442;-67
2021/05/02 11:06:48;;;;;;;20.88;18.48;;;;;;;14.45;54.69;100517.91;5040720;28;20561;-67
2021/05/02 11:09:16;;;;;;;19.40;17.33;;;;;;;14.64;51.78;100522.66;5059966;28;20035;-67
2021/05/02 11:11:45;;;;;;;20.23;17.55;;;;;;;14.62;54.24;100517.44;5032034;28;20115;-68
2021/05/02 11:14:11;;;;;;;19.45;16.95;;;;;;;14.23;53.58;100533.53;5051134;28;20062;-67